PVD Airport (Theodore Francis Green State) Information

FAA: PVD - ICAO: KPVD

PVD Airport Location

State Rhode Island
County Kent
City Providence
PVD Airport is 6 miles south of Providence, RI.
Latitude 41-43-20.4000N
Longitude 071-25-39.8000W
Elevation 54ft

KPVD Airport METARs

METAR KPVD 251551Z 36006KT 3SM BR OVC004 14/13 A3000 RMK AO2 SLP159 T01390128
Altimeter 30.00"
Temperature 13.9°C (57.0°F)
Wind 360° at 6KT
Clouds overcast at 400ft
Visibility 3.0mi
Time observed: 2021-10-25T15:51:00Z

PVD Airport Details

Status Operational
Activation September 1937
Ownership Public
Usage Public
Chart NEW YORK
ATC on-site Yes
Beacon schedule sunset-sunrise
Beacon color clear green

PVD Airport Contacts

Owner STATE OF RHODE ISLAND
Owner address RI AIRPORT CORP, 2000 POST RD, WARWICK, RI 02886
Owner phone 401-691-2000
Manager CHRIS KRICHTEN
Manager address 1001 S GEORGE ST, YORK, PA 17403
Manager phone (717) 851-5055

PVD Airport (Theodore Francis Green State) Radio Frequencies

PVD (Airport) Radio Frequencies

UNICOM N/A
Common traffic advisory frequency (CTAF) 120.7